createdAt,value
2022-08-01T00:04:31.941Z,101091.25
2022-08-01T00:09:33.508Z,101090.63
2022-08-01T00:14:35.287Z,101085.59
2022-08-01T00:19:36.889Z,101093.59
2022-08-01T00:24:38.419Z,101080.81
2022-08-01T00:30:10.186Z,101094.47
2022-08-01T00:35:01.640Z,101093.16
2022-08-01T00:40:04.337Z,101091.63
2022-08-01T00:45:06.515Z,101092.69
2022-08-01T00:50:08.707Z,101091.13
2022-08-01T00:55:15.032Z,101086.97
2022-08-01T01:00:17.478Z,101086.44
2022-08-01T01:05:19.264Z,101085.25
2022-08-01T01:10:28.488Z,101082.56
2022-08-01T01:15:37.051Z,101081.66
2022-08-01T01:20:42.332Z,101084.47
2022-08-01T01:26:05.339Z,101084.91
2022-08-01T01:31:11.073Z,101086.19
2022-08-01T01:36:15.639Z,101090.88
2022-08-01T01:41:19.084Z,101094.91
2022-08-01T01:46:24.404Z,101091.84
2022-08-01T01:51:28.316Z,101095.13
2022-08-01T01:56:31.474Z,101089.84
2022-08-01T02:02:05.130Z,101090.53
2022-08-01T02:06:58.549Z,101090.53
2022-08-01T02:12:08.601Z,101083.75
2022-08-01T02:17:18.698Z,101083.00
2022-08-01T02:22:34.783Z,101078.53
2022-08-01T02:27:45.222Z,101074.88
2022-08-01T02:32:55.092Z,101073.00
2022-08-01T02:37:59.481Z,101063.16
2022-08-01T02:43:04.638Z,101065.34
2022-08-01T02:48:11.134Z,101067.13
2022-08-01T02:53:14.875Z,101072.16
2022-08-01T02:58:18.391Z,101068.13
2022-08-01T03:03:21.523Z,101069.66
2022-08-01T03:08:24.837Z,101069.84
2022-08-01T03:13:28.112Z,101081.09
2022-08-01T03:18:31.333Z,101085.28
2022-08-01T03:23:37.963Z,101089.06
2022-08-01T03:28:41.305Z,101093.50
2022-08-01T03:33:42.987Z,101082.84
2022-08-01T03:38:47.471Z,101089.53
2022-08-01T03:43:56.983Z,101088.88
2022-08-01T03:49:04.790Z,101088.88
2022-08-01T03:54:09.252Z,101092.44
2022-08-01T03:59:11.312Z,101090.69
2022-08-01T04:04:13.908Z,101088.81
2022-08-01T04:09:15.579Z,101089.78
2022-08-01T04:14:17.395Z,101093.72
2022-08-01T04:19:18.843Z,101086.34
2022-08-01T04:24:21.735Z,101088.78
2022-08-01T04:29:24.930Z,101097.19
2022-08-01T04:34:29.478Z,101101.59
2022-08-01T04:39:34.818Z,101101.16
2022-08-01T04:44:53.395Z,101105.38
2022-08-01T04:49:57.573Z,101124.00
2022-08-01T04:54:59.082Z,101137.91
2022-08-01T05:00:00.629Z,101137.16
2022-08-01T05:05:02.099Z,101130.13
2022-08-01T05:10:05.764Z,101132.63
2022-08-01T05:15:13.252Z,101144.13
2022-08-01T05:20:17.267Z,101137.16
2022-08-01T05:25:19.906Z,101135.19
2022-08-01T05:30:22.514Z,101145.56
2022-08-01T05:35:24.275Z,101147.13
2022-08-01T05:40:45.950Z,101163.44
2022-08-01T05:45:48.074Z,101161.69
2022-08-01T05:50:50.624Z,101160.34
2022-08-01T05:55:52.207Z,101169.53
2022-08-01T06:00:53.790Z,101167.13
2022-08-01T06:05:55.383Z,101165.50
2022-08-01T06:10:57.055Z,101163.38
2022-08-01T06:15:58.827Z,101151.53
2022-08-01T06:21:00.351Z,101150.25
2022-08-01T06:26:02.000Z,101150.41
2022-08-01T06:31:03.544Z,101157.56
2022-08-01T06:36:05.308Z,101163.53
2022-08-01T06:41:06.881Z,101159.09
2022-08-01T06:46:08.491Z,101167.56
2022-08-01T06:51:10.066Z,101162.44
2022-08-01T06:56:11.644Z,101168.66
2022-08-01T07:01:13.533Z,101176.00
2022-08-01T07:06:15.937Z,101173.31
2022-08-01T07:11:18.038Z,101170.88
2022-08-01T07:16:19.900Z,101164.47
2022-08-01T07:21:39.664Z,101170.50
2022-08-01T07:26:52.718Z,101173.31
2022-08-01T07:31:58.237Z,101163.00
2022-08-01T07:36:59.928Z,101168.75
2022-08-01T07:42:07.406Z,101181.53
2022-08-01T07:47:09.918Z,101189.25
2022-08-01T07:52:11.546Z,101186.09
2022-08-01T07:57:13.408Z,101191.06
2022-08-01T08:02:15.036Z,101189.34
2022-08-01T08:07:16.808Z,101191.28
2022-08-01T08:12:18.544Z,101189.06
2022-08-01T08:17:35.751Z,101202.53
2022-08-01T08:22:38.591Z,101204.16
2022-08-01T08:27:40.389Z,101204.44
2022-08-01T08:32:42.255Z,101208.09
2022-08-01T08:37:47.548Z,101215.09
2022-08-01T08:42:49.446Z,101215.38
2022-08-01T08:47:52.784Z,101210.78
2022-08-01T08:52:55.862Z,101205.06
2022-08-01T08:57:58.294Z,101207.88
2022-08-01T09:02:59.861Z,101207.09
2022-08-01T09:08:01.567Z,101212.34
2022-08-01T09:13:21.117Z,101214.84
2022-08-01T09:18:37.248Z,101214.94
2022-08-01T09:23:53.967Z,101232.00
2022-08-01T09:28:56.245Z,101230.09
2022-08-01T09:33:59.799Z,101224.66
2022-08-01T09:39:13.382Z,101215.22
2022-08-01T09:44:18.493Z,101225.75
2022-08-01T09:49:50.924Z,101223.88
2022-08-01T09:54:58.654Z,101206.78
2022-08-01T10:00:02.295Z,101216.78
2022-08-01T10:05:20.819Z,101219.41
2022-08-01T10:10:22.909Z,101212.91
2022-08-01T10:15:37.196Z,101209.41
2022-08-01T10:20:40.573Z,101219.19
2022-08-01T10:25:46.970Z,101205.75
2022-08-01T10:30:49.797Z,101216.41
2022-08-01T10:35:51.989Z,101219.88
2022-08-01T10:40:55.231Z,101220.34
2022-08-01T10:45:57.197Z,101226.72
2022-08-01T10:51:02.435Z,101229.38
2022-08-01T10:56:05.136Z,101216.16
2022-08-01T11:01:37.607Z,101214.13
2022-08-01T11:07:06.656Z,101214.91
2022-08-01T11:12:23.208Z,101214.53
2022-08-01T11:17:42.594Z,101199.66
2022-08-01T11:23:07.712Z,101201.84
2022-08-01T11:28:15.405Z,101198.41
2022-08-01T11:33:38.056Z,101189.47
2022-08-01T11:38:40.781Z,101190.44
2022-08-01T11:44:02.081Z,101189.94
2022-08-01T11:49:37.560Z,101205.38
2022-08-01T11:55:03.578Z,101199.13
2022-08-01T12:00:15.403Z,101200.34
2022-08-01T12:05:21.614Z,101197.66
2022-08-01T12:10:33.146Z,101191.31
2022-08-01T12:15:38.519Z,101203.50
2022-08-01T12:20:56.034Z,101198.28
2022-08-01T12:25:58.375Z,101188.16
2022-08-01T12:30:59.912Z,101196.59
2022-08-01T12:36:01.738Z,101198.16
2022-08-01T12:41:04.732Z,101194.13
2022-08-01T12:46:06.488Z,101204.44
2022-08-01T12:51:10.130Z,101200.22
2022-08-01T12:56:12.395Z,101200.13
2022-08-01T13:01:14.654Z,101196.66
2022-08-01T13:06:17.819Z,101197.78
2022-08-01T13:11:20.748Z,101200.75
2022-08-01T13:16:48.778Z,101193.63
2022-08-01T13:21:58.540Z,101204.78
2022-08-01T13:27:04.173Z,101205.41
2022-08-01T13:32:28.244Z,101196.59
2022-08-01T13:37:32.322Z,101199.28
2022-08-01T13:42:34.838Z,101195.25
2022-08-01T13:47:37.036Z,101200.63
2022-08-01T13:52:38.610Z,101208.50
2022-08-01T13:57:40.177Z,101210.78
2022-08-01T14:02:41.771Z,101215.47
2022-08-01T14:07:43.726Z,101213.22
2022-08-01T14:12:50.713Z,101217.44
2022-08-01T14:17:52.951Z,101220.06
2022-08-01T14:22:54.528Z,101220.47
2022-08-01T14:27:56.016Z,101218.13
2022-08-01T14:32:57.502Z,101219.25
2022-08-01T14:37:59.221Z,101214.25
2022-08-01T14:43:02.170Z,101212.13
2022-08-01T14:48:03.964Z,101211.63
2022-08-01T14:53:05.618Z,101215.31
2022-08-01T14:58:07.228Z,101215.72
2022-08-01T15:03:08.829Z,101217.00
2022-08-01T15:08:10.343Z,101220.53
2022-08-01T15:13:12.050Z,101228.50
2022-08-01T15:18:13.652Z,101239.16
2022-08-01T15:23:15.308Z,101230.84
2022-08-01T15:28:17.136Z,101224.66
2022-08-01T15:33:18.755Z,101233.88
2022-08-01T15:38:20.461Z,101234.34
2022-08-01T15:43:22.107Z,101252.03
2022-08-01T15:48:23.962Z,101250.56
2022-08-01T15:53:25.639Z,101253.94
2022-08-01T15:58:27.204Z,101242.50
2022-08-01T16:03:28.884Z,101246.28
2022-08-01T16:08:30.897Z,101242.63
2022-08-01T16:13:32.479Z,101245.25
2022-08-01T16:18:34.141Z,101243.09
2022-08-01T16:23:35.752Z,101251.50
2022-08-01T16:28:37.938Z,101241.25
2022-08-01T16:33:45.704Z,101250.88
2022-08-01T16:38:56.078Z,101240.63
2022-08-01T16:43:58.186Z,101253.09
2022-08-01T16:48:59.864Z,101240.16
2022-08-01T16:54:01.515Z,101234.41
2022-08-01T16:59:03.202Z,101226.63
2022-08-01T17:04:04.921Z,101243.34
2022-08-01T17:09:06.508Z,101234.97
2022-08-01T17:14:08.063Z,101236.97
2022-08-01T17:19:10.059Z,101243.78
2022-08-01T17:24:15.745Z,101239.44
2022-08-01T17:29:18.198Z,101249.97
2022-08-01T17:34:19.852Z,101246.13
2022-08-01T17:39:23.850Z,101240.50
2022-08-01T17:44:41.690Z,101238.47
2022-08-01T17:49:55.163Z,101233.31
2022-08-01T17:54:57.636Z,101228.75
2022-08-01T17:59:59.261Z,101243.06
2022-08-01T18:05:01.008Z,101245.03
2022-08-01T18:10:07.275Z,101242.28
2022-08-01T18:15:15.187Z,101244.84
2022-08-01T18:20:16.871Z,101260.88
2022-08-01T18:25:18.530Z,101261.63
2022-08-01T18:30:20.131Z,101267.81
2022-08-01T18:35:23.586Z,101277.53
2022-08-01T18:40:34.950Z,101274.06
2022-08-01T18:45:42.291Z,101285.22
2022-08-01T18:50:44.425Z,101286.16
2022-08-01T18:55:46.410Z,101291.34
2022-08-01T19:00:48.030Z,101296.38
2022-08-01T19:05:49.640Z,101299.22
2022-08-01T19:10:51.212Z,101290.53
2022-08-01T19:15:52.673Z,101294.34
2022-08-01T19:20:54.430Z,101291.63
2022-08-01T19:25:57.727Z,101306.94
2022-08-01T19:31:00.891Z,101318.59
2022-08-01T19:36:03.554Z,101320.66
2022-08-01T19:41:05.215Z,101321.59
2022-08-01T19:46:07.086Z,101318.72
2022-08-01T19:51:20.867Z,101327.16
2022-08-01T19:56:25.318Z,101330.50
2022-08-01T20:01:27.396Z,101349.53
2022-08-01T20:06:29.510Z,101343.56
2022-08-01T20:11:31.225Z,101340.31
2022-08-01T20:16:33.010Z,101351.31
2022-08-01T20:21:35.699Z,101346.63
2022-08-01T20:26:37.912Z,101351.09
2022-08-01T20:31:44.299Z,101347.34
2022-08-01T20:36:54.483Z,101355.16
2022-08-01T20:42:00.017Z,101350.44
2022-08-01T20:47:07.861Z,101362.63
2022-08-01T20:52:11.132Z,101358.28
2022-08-01T20:57:25.998Z,101358.78
2022-08-01T21:02:33.224Z,101352.00
2022-08-01T21:07:42.473Z,101356.22
2022-08-01T21:12:46.721Z,101352.25
2022-08-01T21:18:09.847Z,101356.44
2022-08-01T21:23:25.519Z,101355.84
2022-08-01T21:28:27.870Z,101348.47
2022-08-01T21:33:29.846Z,101356.38
2022-08-01T21:38:33.463Z,101363.91
2022-08-01T21:43:37.031Z,101365.31
2022-08-01T21:48:39.087Z,101363.06
2022-08-01T21:54:01.805Z,101363.78
2022-08-01T21:59:23.560Z,101372.84
2022-08-01T22:04:34.699Z,101370.06
2022-08-01T22:09:43.997Z,101372.53
2022-08-01T22:14:47.756Z,101372.91
2022-08-01T22:19:54.043Z,101368.78
2022-08-01T22:24:56.059Z,101360.34
2022-08-01T22:30:00.158Z,101364.97
2022-08-01T22:35:03.864Z,101369.59
2022-08-01T22:40:11.242Z,101364.91
2022-08-01T22:45:48.571Z,101372.91
2022-08-01T22:51:11.580Z,101364.91
2022-08-01T22:56:13.993Z,101362.72
2022-08-01T23:01:22.030Z,101365.69
2022-08-01T23:06:38.775Z,101364.16
2022-08-01T23:11:40.303Z,101358.03
2022-08-01T23:16:43.318Z,101358.22
2022-08-01T23:21:45.190Z,101355.16
2022-08-01T23:26:48.351Z,101354.44
2022-08-01T23:31:55.589Z,101357.25
2022-08-01T23:37:06.075Z,101351.34
2022-08-01T23:42:08.337Z,101357.19
2022-08-01T23:47:10.128Z,101362.41
2022-08-01T23:52:20.832Z,101358.28
2022-08-01T23:57:23.365Z,101360.28
